Latest Weather Observations for Dubbo

IDN60801

Issued at 5:32 am EST Sunday 24 September 2017 (issued every 30 minutes, with the page automatically refreshed every 10 minutes)

About weather observations | Map of weather stations | Latest weather observations for NSW | Other Formats
Station Details ID: 065070 Name: DUBBO AIRPORT AWS Lat: -32.22 Lon: 148.58 Height: 284.0 m
Data from the previous 72 hours. | See also: Recent months at Dubbo
Date/Time
EST
Temp
°C
App
Temp
°C
Dew
Point
°C
Rel
Hum
%
Delta-T
°C
Wind Press
QNH
hPa
Press
MSL
hPa
Rain since
9am
mm
Dir  Spd
km/h
Gust
km/h
Spd
kts
Gust
kts
24/05:30am 19.6 13.8 -1.5 24 9.2 SW 19 28 10 15 1007.3 1007.1 0.0
24/05:00am 20.0 15.5 -0.1 26 9.0 S 13 22 7 12 1006.2 1005.9 0.0
24/04:30am 20.8 13.2 2.6 30 8.6 SW 32 44 17 24 1006.6 1006.3 0.0
24/04:00am 21.7 14.6 3.4 30 8.9 SW 30 41 16 22 1004.6 1004.4 0.0
24/03:39am 23.4 16.9 2.8 26 10.0 SW 26 48 14 26 1004.0 1003.8 0.0
24/03:30am 24.3 18.6 0.6 21 11.1 SSW 20 33 11 18 1003.7 1003.4 0.0
24/03:17am 25.8 17.0 -1.1 17 12.4 WSW 35 63 19 34 1003.8 1003.5 0.0
24/03:10am 26.5 16.5 -1.3 16 12.8 W 41 67 22 36 1004.5 1004.3 0.0
24/03:06am 27.0 19.1 -1.8 15 13.2 WNW 30 67 16 36 1004.1 1003.9 0.0
24/03:00am 24.7 18.9 -1.2 18 11.8 WNW 19 24 10 13 1003.3 1003.0 0.0
24/02:30am 25.9 20.8 -1.8 16 12.6 NW 15 17 8 9 1002.8 1002.5 0.0
24/02:00am 27.4 21.9 -2.4 14 13.6 NW 17 24 9 13 1002.8 1002.5 0.0
24/01:30am 26.4 20.9 -2.3 15 13.0 W 17 20 9 11 1003.3 1003.0 0.0
24/01:00am 27.8 20.5 -3.1 13 14.0 W 26 39 14 21 1003.8 1003.5 0.0
24/12:30am 27.7 21.5 -3.2 13 13.9 N 20 26 11 14 1002.5 1002.2 0.0
24/12:00am 28.5 22.4 -3.6 12 14.5 NNW 19 24 10 13 1002.8 1002.5 0.0
 
Date/Time
EST
Temp
°C
App
Temp
°C
Dew
Point
°C
Rel
Hum
%
Delta-T
°C
Wind Press
QNH
hPa
Press
MSL
hPa
Rain since
9am
mm
Dir  Spd
km/h
Gust
km/h
Spd
kts
Gust
kts
23/11:30pm 30.2 22.4 -3.5 11 15.4 N 28 39 15 21 1002.8 1002.5 0.0
23/11:00pm 30.9 22.7 -4.2 10 16.0 N 30 41 16 22 1002.8 1002.5 0.0
23/10:30pm 31.8 22.6 -4.9 9 16.5 NNW 35 56 19 30 1003.3 1003.0 0.0
23/10:24pm 32.4 23.6 -4.5 9 16.8 NNW 33 54 18 29 1003.3 1003.0 0.0
23/10:00pm 30.9 24.2 -4.2 10 16.0 NNW 22 30 12 16 1003.3 1003.0 0.0
23/09:32pm 31.2 21.1 -5.4 9 16.3 NNW 39 70 21 38 1003.7 1003.4 0.0
23/09:30pm 32.7 22.0 -4.3 9 17.0 NW 43 70 23 38 1003.6 1003.3 0.0
23/09:25pm 33.8 23.2 -3.5 9 17.5 NNW 43 72 23 39 1003.3 1003.0 0.0
23/09:20pm 32.1 24.4 -3.3 10 16.4 NNW 28 72 15 39 1003.6 1003.3 0.0
23/09:00pm 29.5 22.3 -5.3 10 15.4 NNW 24 39 13 21 1003.7 1003.4 0.0
23/08:51pm 30.7 22.8 -4.4 10 15.8 NNW 28 46 15 25 1003.5 1003.2 0.0
23/08:30pm 30.6 23.5 -4.4 10 15.8 N 24 33 13 18 1003.4 1003.1 0.0
23/08:00pm 30.5 23.4 -4.5 10 15.8 N 24 28 13 15 1003.2 1002.9 0.0
23/07:30pm 30.3 23.9 -4.7 10 15.6 NNE 20 24 11 13 1002.9 1002.6 0.0
23/07:00pm 30.2 23.8 -4.8 10 15.7 NNE 20 24 11 13 1002.6 1002.3 0.0
23/06:30pm 29.2 23.3 -5.5 10 15.2 NNE 17 20 9 11 1002.5 1002.2 0.0
23/06:00pm 31.3 24.9 -5.3 9 16.4 NNE 20 26 11 14 1002.5 1002.2 0.0
23/05:30pm 32.9 25.7 -5.7 8 17.3 N 24 32 13 17 1002.6 1002.3 0.0
23/05:00pm 31.8 25.6 -3.5 10 16.4 NNE 20 28 11 15 1002.7 1002.4 0.0
23/04:30pm 32.2 25.2 -3.2 10 16.5 NNE 24 35 13 19 1002.8 1002.5 0.0
23/04:00pm 32.6 24.0 -4.3 9 17.0 NNE 32 41 17 22 1003.0 1002.7 0.0
23/03:30pm 34.4 25.2 -4.6 8 18.0 NNE 35 46 19 25 1003.3 1003.0 0.0
23/03:17pm 35.1 26.5 -4.1 8 18.4 NNE 32 50 17 27 1003.6 1003.3 0.0
23/03:00pm 34.0 24.0 -4.9 8 17.9 NNE 39 50 21 27 1003.8 1003.5 0.0
23/02:30pm 34.4 24.8 -4.6 8 18.0 NNW 37 50 20 27 1004.3 1004.1 0.0
23/02:00pm 34.1 23.3 -4.8 8 17.9 NNW 43 59 23 32 1005.0 1004.7 0.0
23/01:55pm 34.6 23.9 -4.4 8 18.1 N 43 59 23 32 1005.0 1004.7 0.0
23/01:30pm 32.6 22.3 -4.3 9 16.9 N 41 54 22 29 1005.4 1005.1 0.0
23/01:23pm 32.5 22.9 -4.4 9 16.9 NNW 37 54 20 29 1005.5 1005.2 0.0
23/01:11pm 35.0 25.6 -2.6 9 18.0 N 37 52 20 28 1005.7 1005.4 0.0
23/01:00pm 32.6 22.8 -2.9 10 16.7 N 39 52 21 28 1005.9 1005.6 0.0
23/12:50pm 31.9 22.6 -2.2 11 16.1 N 37 54 20 29 1006.1 1005.8 0.0
23/12:46pm 31.9 22.2 -2.2 11 16.1 N 39 54 21 29 1006.1 1005.8 0.0
23/12:30pm 33.1 22.6 -2.6 10 16.9 N 43 56 23 30 1006.2 1005.9 0.0
23/12:00pm 31.1 21.3 -2.8 11 15.8 N 39 52 21 28 1006.7 1006.4 0.0
23/11:30am 32.0 21.8 -3.4 10 16.4 N 41 56 22 30 1007.3 1007.1 0.0
23/11:00am 30.7 21.5 -4.4 10 15.9 NNE 35 46 19 25 1007.8 1007.6 0.0
23/10:30am 30.4 20.7 -6.0 9 15.9 NNE 37 54 20 29 1008.8 1008.5 0.0
23/10:23am 32.1 22.9 -4.7 9 16.7 NNE 35 54 19 29 1008.9 1008.6 0.0
23/10:17am 31.2 22.9 -5.4 9 16.3 NNE 30 44 16 24 1009.0 1008.7 0.0
23/10:00am 28.8 23.9 -3.4 12 14.6 NNE 13 26 7 14 1009.6 1009.3 0.0
23/09:30am 26.3 21.7 -0.7 17 12.6 ENE 13 19 7 10 1010.0 1009.8 0.0
23/09:00am 22.8 18.3 -0.6 21 10.6 ESE 13 17 7 9 1010.4 1010.2 0.0
23/08:30am 20.1 14.6 0.5 27 8.9 SSE 19 24 10 13 1010.9 1010.7 0.0
23/08:00am 17.7 11.8 -0.5 29 7.9 SSE 20 30 11 16 1010.9 1010.7 0.0
23/07:30am 17.4 11.6 -1.3 28 8.0 SSE 19 22 10 12 1010.9 1010.7 0.0
23/07:00am 16.2 11.1 -1.8 29 7.5 SE 15 20 8 11 1010.3 1010.1 0.0
23/06:30am 16.0 11.3 -2.0 29 7.5 ESE 13 15 7 8 1010.4 1010.2 0.0
23/06:00am 12.2 7.0 -2.4 36 5.8 ENE 15 19 8 10 1010.0 1009.8 0.0
23/05:30am 14.8 9.7 -2.1 31 6.9 SSE 15 20 8 11 1010.6 1010.4 0.0
23/05:00am 14.6 9.0 -2.8 30 7.0 SSE 17 22 9 12 1010.3 1010.1 0.0
23/04:30am 13.7 8.8 -3.1 31 6.7 SE 13 17 7 9 1010.3 1010.1 0.0
23/04:00am 13.3 7.7 -2.6 33 6.4 SE 17 20 9 11 1010.0 1009.8 0.0
23/03:30am 13.6 8.1 -2.3 33 6.4 SE 17 19 9 10 1010.3 1010.1 0.0
23/03:00am 13.5 8.3 -2.8 32 6.5 SE 15 17 8 9 1010.6 1010.4 0.0
23/02:30am 13.2 8.0 -3.1 32 6.4 SE 15 19 8 10 1010.6 1010.4 0.0
23/02:00am 15.3 10.4 -3.1 28 7.4 ESE 13 17 7 9 1010.9 1010.7 0.0
23/01:30am 14.3 9.4 -3.5 29 7.0 ESE 13 15 7 8 1011.4 1011.2 0.0
23/01:00am 14.9 10.0 -3.4 28 7.3 E 13 15 7 8 1011.7 1011.5 0.0
23/12:30am 14.9 10.0 -3.4 28 7.3 ESE 13 15 7 8 1011.9 1011.7 0.0
23/12:00am 15.9 11.0 -3.6 26 7.8 E 13 15 7 8 1012.0 1011.8 0.0
 
Date/Time
EST
Temp
°C
App
Temp
°C
Dew
Point
°C
Rel
Hum
%
Delta-T
°C
Wind Press
QNH
hPa
Press
MSL
hPa
Rain since
9am
mm
Dir  Spd
km/h
Gust
km/h
Spd
kts
Gust
kts
22/11:30pm 16.6 12.4 -4.0 24 8.2 ENE 9 11 5 6 1012.1 1011.9 0.0
22/11:00pm 17.7 13.5 -3.7 23 8.7 ENE 9 11 5 6 1012.3 1012.0 0.0
22/10:30pm 17.6 13.8 -3.7 23 8.7 NE 7 11 4 6 1012.4 1012.1 0.0
22/10:00pm 17.3 13.1 -4.0 23 8.6 NE 9 11 5 6 1012.3 1012.0 0.0
22/09:30pm 18.2 13.9 -4.5 21 9.1 NE 9 11 5 6 1012.4 1012.1 0.0
22/09:00pm 18.2 14.3 -4.5 21 9.1 NE 7 9 4 5 1012.4 1012.1 0.0
22/08:30pm 18.9 14.6 -5.2 19 9.6 NE 9 11 5 6 1012.4 1012.1 0.0
22/08:00pm 19.4 15.4 -5.5 18 9.9 NE 7 9 4 5 1012.3 1012.0 0.0
22/07:30pm 19.8 15.1 -5.2 18 10.1 NNE 11 13 6 7 1012.1 1011.9 0.0
22/07:00pm 20.2 15.4 -5.6 17 10.4 NNE 11 13 6 7 1012.0 1011.8 0.0
22/06:30pm 21.1 16.3 -6.5 15 11.0 NNE 11 13 6 7 1011.9 1011.7 0.0
22/06:00pm 24.1 18.5 -6.0 13 12.5 NNE 15 17 8 9 1011.8 1011.6 0.0
22/05:30pm 26.7 21.1 -6.2 11 13.9 N 15 20 8 11 1011.7 1011.5 0.0
22/05:00pm 28.4 21.9 -7.5 9 15.1 N 19 22 10 12 1011.5 1011.3 0.0
22/04:30pm 29.4 22.4 -6.7 9 15.5 N 22 30 12 16 1011.4 1011.2 0.0
22/04:00pm 29.7 22.4 -6.5 9 15.6 N 24 32 13 17 1011.4 1011.2 0.0
22/03:30pm 29.9 22.6 -6.4 9 15.7 N 24 35 13 19 1011.5 1011.3 0.0
22/03:00pm 29.9 23.0 -6.4 9 15.7 NNW 22 33 12 18 1011.6 1011.4 0.0
22/02:30pm 30.7 24.4 -4.4 10 15.8 N 20 32 11 17 1011.7 1011.5 0.0
22/02:00pm 30.1 23.7 -4.8 10 15.6 N 20 32 11 17 1012.3 1012.0 0.0
22/01:30pm 30.5 23.9 -3.3 11 15.5 NNW 22 30 12 16 1012.4 1012.1 0.0
22/01:00pm 28.5 22.0 -6.0 10 14.9 N 20 32 11 17 1012.8 1012.5 0.0
22/12:30pm 29.5 23.4 -4.0 11 15.1 N 19 28 10 15 1013.2 1013.0 0.0
22/12:00pm 27.8 21.2 -6.6 10 14.6 NNE 20 32 11 17 1013.6 1013.4 0.0
22/11:30am 27.2 20.2 -7.0 10 14.3 N 22 28 12 15 1014.4 1014.2 0.0
22/11:00am 27.1 20.9 -4.7 12 13.8 NNW 19 32 10 17 1015.1 1014.9 0.0
22/10:30am 25.8 21.2 -3.7 14 12.9 NNW 11 22 6 12 1015.6 1015.4 0.0
22/10:00am 22.7 19.1 -2.1 19 10.9 NW 7 17 4 9 1016.1 1015.9 0.0
22/09:30am 20.3 17.3 -2.1 22 9.7 ENE 4 11 2 6 1016.1 1015.9 0.0
22/09:00am 17.5 13.6 -1.7 27 8.1 ESE 9 13 5 7 1016.5 1016.3 0.0
22/08:30am 15.1 11.5 -2.3 30 7.1 ESE 7 11 4 6 1016.5 1016.3 0.0
22/08:00am 13.1 8.4 -1.6 36 6.0 SE 13 15 7 8 1016.5 1016.3 0.0
22/07:30am 9.7 4.2 -1.9 44 4.5 SE 17 20 9 11 1016.5 1016.3 0.0
22/07:00am 8.1 3.3 -2.2 48 3.9 SE 13 17 7 9 1016.3 1016.1 0.0
22/06:30am 5.4 0.7 -2.0 59 2.7 SE 13 15 7 8 1015.8 1015.6 0.0
22/06:00am 3.7 -1.2 -3.1 61 2.4 SE 13 15 7 8 1015.4 1015.2 0.0
22/05:30am 4.9 -0.7 -2.9 57 2.8 SSE 17 19 9 10 1015.2 1015.0 0.0
22/05:00am 5.7 -0.3 -2.9 54 3.1 SSE 19 20 10 11 1015.1 1014.9 0.0
22/04:30am 6.1 0.1 -3.3 51 3.4 SE 19 22 10 12 1014.9 1014.7 0.0
22/04:00am 7.4 1.4 -3.2 47 3.9 SE 19 24 10 13 1014.7 1014.5 0.0
22/03:30am 7.0 1.4 -3.2 48 3.7 SSE 17 20 9 11 1014.6 1014.4 0.0
22/03:00am 5.7 0.5 -3.1 53 3.2 SE 15 17 8 9 1014.3 1014.1 0.0
22/02:30am 6.4 1.2 -2.7 52 3.3 SE 15 17 8 9 1014.5 1014.3 0.0
22/02:00am 5.6 0.8 -2.7 55 3.0 SSE 13 15 7 8 1014.8 1014.6 0.0
22/01:30am 5.9 1.8 -2.9 53 3.2 SE 9 11 5 6 1014.9 1014.7 0.0
22/01:00am 6.8 2.7 -3.1 49 3.6 ESE 9 11 5 6 1015.1 1014.9 0.0
22/12:30am 7.7 4.0 -2.6 48 3.9 ESE 7 9 4 5 1015.2 1015.0 0.0
22/12:00am 6.1 1.9 -3.5 50 3.4 E 9 11 5 6 1015.4 1015.2 0.0
 
Date/Time
EST
Temp
°C
App
Temp
°C
Dew
Point
°C
Rel
Hum
%
Delta-T
°C
Wind Press
QNH
hPa
Press
MSL
hPa
Rain since
9am
mm
Dir  Spd
km/h
Gust
km/h
Spd
kts
Gust
kts
21/11:30pm 7.1 2.6 -3.4 47 3.8 ESE 11 13 6 7 1015.4 1015.2 0.0
21/11:00pm 7.3 2.7 -4.1 44 4.1 SE 11 13 6 7 1015.5 1015.3 0.0
21/10:30pm 11.9 8.6 -4.7 31 6.2 E 4 7 2 4 1015.6 1015.4 0.0
21/10:00pm 12.8 10.2 -4.8 29 6.6 CALM 0 6 0 3 1015.6 1015.4 0.0
21/09:30pm 12.1 8.4 -4.9 30 6.3 NE 6 7 3 4 1015.5 1015.3 0.0
21/09:00pm 13.8 9.8 -5.9 25 7.3 NE 7 9 4 5 1015.6 1015.4 0.0
21/08:30pm 14.9 12.2 -6.0 23 7.9 CALM 0 7 0 4 1015.6 1015.4 0.0
21/08:18pm 15.7 12.9 -6.5 21 8.3 CALM 0 2 0 1 1015.5 1015.3 0.0
21/08:00pm 15.8 11.7 -6.5 21 8.4 WNW 7 9 4 5 1015.4 1015.2 0.0
21/07:59pm 15.5 11.4 -6.7 21 8.3 WNW 7 9 4 5 1015.4 1015.2 0.0
21/07:40pm 17.9 13.8 -6.7 18 9.4 WNW 7 9 4 5 1015.3 1015.1 0.0
21/07:30pm 18.2 14.1 -6.5 18 9.5 W 7 7 4 4 1015.3 1015.1 0.0
21/07:00pm 18.5 14.9 -7.0 17 9.8 WNW 4 7 2 4 1015.0 1014.8 0.0
21/06:30pm 19.8 15.8 -7.5 15 10.5 NW 6 7 3 4 1014.9 1014.7 0.0
21/06:00pm 21.3 17.1 -7.2 14 11.2 NNW 7 7 4 4 1014.5 1014.3 0.0
21/05:30pm 22.9 17.9 -8.0 12 12.2 N 11 13 6 7 1014.2 1014.0 0.0
21/05:00pm 24.6 18.8 -9.0 10 13.2 N 15 19 8 10 1014.1 1013.9 0.0
21/04:30pm 25.3 19.1 -8.5 10 13.5 N 17 24 9 13 1013.9 1013.7 0.0
21/04:00pm 25.5 19.6 -9.7 9 13.8 N 15 20 8 11 1013.9 1013.7 0.0
21/03:30pm 25.9 20.2 -8.0 10 13.7 NNW 15 22 8 12 1014.0 1013.8 0.0
21/03:00pm 25.5 19.4 -8.3 10 13.6 NNW 17 22 9 12 1014.2 1014.0 0.0
21/02:30pm 26.2 20.5 -7.8 10 13.9 NNW 15 26 8 14 1014.4 1014.2 0.0
21/02:00pm 25.2 19.1 -7.3 11 13.3 N 17 30 9 16 1014.8 1014.6 0.0
21/01:30pm 25.0 18.5 -7.5 11 13.2 NNW 19 24 10 13 1015.2 1015.0 0.0
21/01:00pm 24.9 18.9 -6.4 12 12.9 NNW 17 26 9 14 1015.6 1015.4 0.0
21/12:30pm 24.0 18.5 -5.1 14 12.2 NW 15 22 8 12 1016.2 1016.0 0.0
21/12:00pm 23.4 17.6 -4.7 15 11.8 NW 17 24 9 13 1016.7 1016.5 0.0
21/11:30am 23.3 18.4 -3.1 17 11.5 NW 13 20 7 11 1017.2 1017.0 0.0
21/11:00am 22.1 18.4 -3.3 18 10.8 NW 7 13 4 7 1017.6 1017.4 0.0
21/10:30am 20.3 17.0 -1.5 23 9.5 NNW 6 9 3 5 1018.0 1017.8 0.0
21/10:00am 18.9 15.8 1.4 31 8.0 SE 7 13 4 7 1018.2 1018.0 0.0
21/09:30am 16.3 12.7 0.8 35 6.8 ESE 9 15 5 8 1018.5 1018.3 0.0
21/09:00am 14.3 10.4 1.2 41 5.7 ESE 11 15 6 8 1018.6 1018.4 0.0
21/08:30am 11.9 7.6 0.7 46 4.7 ESE 13 17 7 9 1018.8 1018.6 0.0
21/08:00am 9.5 5.7 1.7 58 3.3 ESE 11 15 6 8 1018.9 1018.7 0.0
21/07:30am 8.0 3.0 1.6 64 2.7 SE 17 20 9 11 1018.5 1018.3 0.0
21/07:00am 6.6 2.4 1.5 70 2.1 SSE 13 17 7 9 1018.1 1017.9 0.0
21/06:30am 4.3 0.0 1.0 79 1.3 SSE 13 15 7 8 1017.8 1017.6 0.0
21/06:00am 2.6 -1.9 0.0 83 1.0 SSE 13 15 7 8 1017.4 1017.2 0.0

Other Formats:

Comma delimited format used in spreadsheet applications
http://www.bom.gov.au/fwo/IDN60801/IDN60801.95719.axf

JavaScript Object Notation format (JSON) in row-major order
http://www.bom.gov.au/fwo/IDN60801/IDN60801.95719.json